Time;durP1;ratioP1;P1;durP2;ratioP2;P2;SDS_P1;SDS_P2;PMS_P1;PMS_P2;Temp;Humidity;BMP_temperature;BMP_pressure;BME280_temperature;BME280_humidity;BME280_pressure;Samples;Min_cycle;Max_cycle;Signal;HPM_P1;HPM_P2
2022/05/18 00:00:29;;;;;;;0.88;0.60;;;10.80;99.90;;;;;;4976725;28;20030;-79
2022/05/18 00:03:05;;;;;;;1.77;0.70;;;10.80;99.90;;;;;;4983436;28;20018;-81
2022/05/18 00:05:34;;;;;;;1.42;0.60;;;10.90;99.90;;;;;;4981855;28;20081;-79
2022/05/18 00:08:02;;;;;;;2.10;0.52;;;10.90;99.90;;;;;;4985039;28;20369;-79
2022/05/18 00:10:30;;;;;;;2.40;1.10;;;11.00;99.90;;;;;;4993137;28;20113;-79
2022/05/18 00:12:57;;;;;;;4.72;0.85;;;11.00;99.90;;;;;;4991711;28;20388;-79
2022/05/18 00:15:28;;;;;;;1.45;0.60;;;11.10;99.90;;;;;;4995280;28;20030;-77
2022/05/18 00:17:55;;;;;;;2.45;0.50;;;11.20;99.90;;;;;;4997224;28;20023;-79
2022/05/18 00:20:24;;;;;;;2.78;0.68;;;11.20;99.90;;;;;;4996773;28;20023;-79
2022/05/18 00:22:57;;;;;;;0.90;0.40;;;11.30;99.90;;;;;;4997436;28;20109;-78
2022/05/18 00:25:27;;;;;;;0.93;0.57;;;11.40;99.90;;;;;;4996466;28;20034;-78
2022/05/18 00:27:55;;;;;;;1.63;0.50;;;11.40;99.90;;;;;;4996420;28;20069;-78
2022/05/18 00:30:24;;;;;;;2.25;0.75;;;11.50;99.90;;;;;;4996117;28;20406;-76
2022/05/18 00:32:52;;;;;;;0.82;0.52;;;11.60;99.90;;;;;;4992467;28;20464;-78
2022/05/18 00:35:19;;;;;;;2.17;0.90;;;11.60;99.90;;;;;;4987665;28;20062;-78
2022/05/18 00:37:47;;;;;;;2.70;0.68;;;11.70;99.90;;;;;;4995693;28;20497;-73
2022/05/18 00:40:17;;;;;;;1.75;0.60;;;11.80;99.90;;;;;;4984945;28;20038;-78
2022/05/18 00:42:45;;;;;;;2.60;0.65;;;11.90;99.90;;;;;;4980138;28;20022;-78
2022/05/18 00:45:17;;;;;;;1.58;0.77;;;11.90;99.90;;;;;;4994522;28;20046;-77
2022/05/18 00:47:44;;;;;;;2.85;0.80;;;12.00;99.90;;;;;;4995887;28;20030;-73
2022/05/18 00:50:32;;;;;;;2.05;0.57;;;12.00;99.90;;;;;;4993553;28;20088;-77
2022/05/18 00:53:23;;;;;;;1.85;0.50;;;12.10;99.90;;;;;;4987669;28;20027;-77
2022/05/18 00:55:55;;;;;;;3.65;0.80;;;12.10;99.90;;;;;;4980260;28;20037;-77
2022/05/18 00:58:31;;;;;;;4.50;0.50;;;12.20;99.90;;;;;;4993677;28;20026;-76
2022/05/18 01:00:59;;;;;;;2.88;0.85;;;12.20;99.90;;;;;;4991573;28;20034;-77
2022/05/18 01:03:34;;;;;;;2.88;0.95;;;12.30;99.90;;;;;;4971988;28;20027;-77
2022/05/18 01:06:36;;;;;;;1.38;0.85;;;12.40;99.90;;;;;;4972236;28;20379;-76
2022/05/18 01:09:16;;;;;;;2.58;0.70;;;12.50;99.90;;;;;;4973150;28;20110;-77
2022/05/18 01:11:44;;;;;;;3.00;0.52;;;12.70;99.90;;;;;;4984970;28;20034;-76
2022/05/18 01:14:30;;;;;;;1.13;0.40;;;12.70;99.90;;;;;;4993284;28;20374;-77
2022/05/18 01:16:59;;;;;;;1.10;0.50;;;12.70;99.90;;;;;;4991825;28;20474;-76
2022/05/18 01:19:45;;;;;;;1.95;0.50;;;12.90;99.90;;;;;;4993907;28;20026;-77
2022/05/18 01:22:33;;;;;;;1.65;0.68;;;12.90;99.90;;;;;;4993471;28;20117;-77
2022/05/18 01:25:27;;;;;;;1.55;0.60;;;13.00;99.90;;;;;;4994335;28;20026;-76
2022/05/18 01:27:57;;;;;;;1.55;0.68;;;13.10;99.90;;;;;;4996061;28;20483;-77
2022/05/18 01:30:26;;;;;;;3.08;0.90;;;13.10;99.90;;;;;;4995609;28;20034;-76
2022/05/18 01:32:55;;;;;;;2.10;0.50;;;13.10;99.90;;;;;;4995636;28;20027;-77
2022/05/18 01:35:27;;;;;;;2.47;0.70;;;13.30;99.90;;;;;;4994014;28;20134;-77
2022/05/18 01:37:59;;;;;;;3.25;0.75;;;13.40;99.90;;;;;;4995745;28;20058;-77
2022/05/18 01:40:41;;;;;;;1.63;0.40;;;13.40;99.90;;;;;;4995619;28;20073;-76
2022/05/18 01:43:20;;;;;;;0.82;0.60;;;13.40;99.90;;;;;;4995708;28;20030;-77
2022/05/18 01:45:56;;;;;;;1.63;0.90;;;13.40;99.90;;;;;;4995848;28;20018;-77
2022/05/18 01:48:29;;;;;;;1.27;0.50;;;13.50;99.90;;;;;;4999254;28;20017;-77
2022/05/18 01:51:00;;;;;;;2.05;0.60;;;13.60;99.90;;;;;;4995710;28;20442;-77
2022/05/18 01:53:30;;;;;;;0.82;0.40;;;13.70;99.90;;;;;;4995664;28;20383;-76
2022/05/18 01:55:57;;;;;;;1.42;0.43;;;13.70;99.90;;;;;;4995398;28;20027;-77
2022/05/18 01:58:25;;;;;;;1.95;0.93;;;13.80;99.90;;;;;;4995576;28;20057;-77
2022/05/18 02:00:54;;;;;;;4.90;0.93;;;13.90;99.90;;;;;;4988562;28;20487;-76
2022/05/18 02:03:22;;;;;;;3.22;0.63;;;13.90;99.90;;;;;;4992836;28;20022;-77
2022/05/18 02:05:52;;;;;;;2.95;0.57;;;13.90;99.90;;;;;;4994574;28;20073;-76
2022/05/18 02:08:22;;;;;;;4.90;0.45;;;13.90;99.90;;;;;;4992012;28;20101;-77
2022/05/18 02:10:51;;;;;;;2.20;0.80;;;14.00;99.90;;;;;;4994571;28;20038;-77
2022/05/18 02:13:20;;;;;;;2.03;0.50;;;14.00;99.90;;;;;;4994617;28;20376;-77
2022/05/18 02:15:48;;;;;;;3.90;0.70;;;14.10;99.90;;;;;;4994232;28;20038;-77
2022/05/18 02:18:17;;;;;;;3.42;0.70;;;14.10;99.90;;;;;;4994516;28;20499;-77
2022/05/18 02:20:44;;;;;;;2.35;0.50;;;14.10;99.90;;;;;;4994551;28;20046;-77
2022/05/18 02:23:12;;;;;;;4.03;0.73;;;14.20;99.90;;;;;;4994882;28;20474;-77
2022/05/18 02:25:40;;;;;;;3.25;0.60;;;14.20;99.90;;;;;;4994099;28;20399;-77
2022/05/18 02:28:08;;;;;;;3.65;0.73;;;14.20;99.90;;;;;;4993982;28;20485;-77
2022/05/18 02:30:35;;;;;;;2.30;0.70;;;14.20;99.90;;;;;;4994762;28;20121;-77
2022/05/18 02:33:03;;;;;;;0.77;0.52;;;14.30;99.90;;;;;;4994813;28;20034;-76
2022/05/18 02:35:31;;;;;;;2.17;0.60;;;14.30;99.90;;;;;;4991929;28;20117;-76
2022/05/18 02:37:59;;;;;;;2.85;0.40;;;14.40;99.90;;;;;;4994098;28;20026;-76
2022/05/18 02:40:27;;;;;;;1.10;0.55;;;14.30;99.90;;;;;;4994404;28;20041;-75
2022/05/18 02:42:54;;;;;;;1.85;0.77;;;14.30;99.90;;;;;;4992579;28;20025;-76
2022/05/18 02:45:22;;;;;;;0.50;0.30;;;14.40;99.90;;;;;;4992638;28;20084;-76
2022/05/18 02:47:50;;;;;;;3.97;1.25;;;14.40;99.90;;;;;;4992664;28;20136;-76
2022/05/18 02:50:18;;;;;;;0.90;0.32;;;14.40;99.90;;;;;;4992461;28;20054;-76
2022/05/18 02:52:46;;;;;;;3.50;0.60;;;14.50;99.90;;;;;;4992744;28;20101;-76
2022/05/18 02:58:02;;;;;;;2.13;0.90;;;14.50;99.90;;;;;;4964039;28;20411;-77
2022/05/18 03:00:30;;;;;;;2.20;0.88;;;14.60;99.90;;;;;;4994538;28;20104;-77
2022/05/18 03:02:57;;;;;;;1.42;0.40;;;14.60;99.90;;;;;;4994578;28;20590;-76
2022/05/18 03:05:25;;;;;;;0.70;0.40;;;14.60;99.90;;;;;;4994399;28;20062;-76
2022/05/18 03:07:53;;;;;;;0.63;0.40;;;14.70;99.90;;;;;;4994342;28;20022;-76
2022/05/18 03:10:21;;;;;;;4.90;0.50;;;14.70;99.90;;;;;;4989558;28;20480;-75
2022/05/18 03:12:49;;;;;;;1.55;0.70;;;14.70;99.90;;;;;;4984770;28;20054;-76
2022/05/18 03:15:16;;;;;;;3.10;0.98;;;14.80;99.90;;;;;;4982666;28;20022;-76
2022/05/18 03:17:44;;;;;;;0.57;0.35;;;14.80;99.90;;;;;;4984222;28;20027;-77
2022/05/18 03:23:33;;;;;;;1.75;0.50;;;14.80;99.90;;;;;;4981785;28;20103;-77
2022/05/18 03:25:45;;;;;;;1.48;0.40;;;14.70;99.90;;;;;;4974661;28;20025;-76
2022/05/18 03:28:13;;;;;;;0.88;0.50;;;14.80;99.90;;;;;;4974495;28;20035;-76
2022/05/18 03:30:40;;;;;;;1.75;0.30;;;14.90;99.90;;;;;;4974388;28;20049;-77
2022/05/18 03:33:08;;;;;;;1.55;0.55;;;14.80;99.90;;;;;;4973582;28;20086;-77
2022/05/18 03:35:36;;;;;;;1.58;0.70;;;14.90;99.90;;;;;;4974718;28;20499;-77
2022/05/18 03:38:05;;;;;;;2.78;0.55;;;14.90;99.90;;;;;;4974200;28;20034;-75
2022/05/18 03:40:38;;;;;;;5.70;0.85;;;15.00;99.90;;;;;;4974511;28;21220;-74
2022/05/18 03:43:06;;;;;;;2.00;0.50;;;15.00;99.90;;;;;;4993345;28;20023;-74
2022/05/18 03:45:35;;;;;;;2.08;0.60;;;15.00;99.90;;;;;;4987793;28;20117;-75
2022/05/18 03:48:03;;;;;;;1.40;0.90;;;15.00;99.90;;;;;;4974257;28;20027;-75
2022/05/18 03:50:31;;;;;;;1.58;0.82;;;15.00;99.90;;;;;;4977633;28;20043;-75
2022/05/18 03:53:00;;;;;;;1.27;0.65;;;15.00;99.90;;;;;;4978150;28;20026;-75
2022/05/18 03:55:28;;;;;;;0.80;0.50;;;15.00;99.90;;;;;;4978177;28;20027;-75
2022/05/18 03:57:55;;;;;;;3.05;0.80;;;15.00;99.90;;;;;;4978089;28;20054;-75
2022/05/18 04:00:24;;;;;;;2.42;0.52;;;15.00;99.90;;;;;;4977974;28;20033;-76
2022/05/18 04:02:51;;;;;;;0.82;0.50;;;15.00;99.90;;;;;;4977917;28;20085;-75
2022/05/18 04:05:20;;;;;;;0.30;0.25;;;15.00;99.90;;;;;;4978050;28;20074;-75
2022/05/18 04:07:49;;;;;;;1.65;0.40;;;15.00;99.90;;;;;;4977973;28;20062;-74
2022/05/18 04:10:17;;;;;;;1.73;0.50;;;15.00;99.90;;;;;;4991999;28;20483;-74
2022/05/18 04:12:45;;;;;;;0.77;0.40;;;15.10;99.90;;;;;;4997124;28;20498;-74
2022/05/18 04:15:16;;;;;;;2.50;0.80;;;15.10;99.90;;;;;;4997337;28;20081;-75
2022/05/18 04:17:46;;;;;;;3.33;0.52;;;15.00;99.90;;;;;;4997209;28;20084;-75
2022/05/18 04:20:17;;;;;;;1.13;0.50;;;15.00;99.90;;;;;;4996083;28;20054;-75
2022/05/18 04:22:45;;;;;;;1.15;0.57;;;15.00;99.90;;;;;;4996881;28;20387;-75
2022/05/18 04:25:15;;;;;;;0.85;0.30;;;15.00;99.90;;;;;;4997157;28;20026;-75
2022/05/18 04:27:47;;;;;;;1.30;0.50;;;15.00;99.90;;;;;;4997065;28;20524;-76
2022/05/18 04:30:16;;;;;;;1.25;0.50;;;15.00;99.90;;;;;;4993716;28;20047;-75
2022/05/18 04:32:44;;;;;;;4.90;0.57;;;15.00;99.90;;;;;;4986852;28;20029;-74
2022/05/18 04:35:14;;;;;;;0.40;0.30;;;15.00;99.90;;;;;;4988920;28;20022;-75
2022/05/18 04:37:42;;;;;;;2.03;0.50;;;15.00;99.90;;;;;;4996339;28;20080;-74
2022/05/18 04:40:10;;;;;;;2.70;0.60;;;15.00;99.90;;;;;;4996403;28;20019;-75
2022/05/18 04:42:38;;;;;;;0.75;0.43;;;15.00;99.90;;;;;;4996211;28;20101;-75
2022/05/18 04:45:09;;;;;;;1.45;0.60;;;15.00;99.90;;;;;;4996332;28;20027;-75
2022/05/18 04:47:36;;;;;;;0.90;0.40;;;14.90;99.90;;;;;;4996202;28;20025;-75
2022/05/18 04:50:06;;;;;;;3.72;0.70;;;14.90;99.90;;;;;;4995628;28;20402;-76
2022/05/18 04:52:34;;;;;;;0.77;0.45;;;14.90;99.90;;;;;;4989989;28;20502;-76
2022/05/18 04:55:01;;;;;;;2.10;0.63;;;14.90;99.90;;;;;;4993617;28;20398;-76
2022/05/18 04:57:29;;;;;;;6.40;1.00;;;14.90;99.90;;;;;;4995938;28;20523;-76
2022/05/18 04:59:57;;;;;;;5.70;0.88;;;14.90;99.90;;;;;;4995703;28;20022;-75
2022/05/18 05:02:25;;;;;;;1.55;0.68;;;14.90;99.90;;;;;;4995305;28;20110;-75
2022/05/18 05:04:52;;;;;;;4.78;0.68;;;14.90;99.90;;;;;;4995861;28;20049;-74
2022/05/18 05:07:20;;;;;;;1.27;0.45;;;14.90;99.90;;;;;;4995717;28;20022;-76
2022/05/18 05:09:48;;;;;;;2.20;0.73;;;14.90;99.90;;;;;;4995309;28;20065;-75
2022/05/18 05:12:16;;;;;;;3.03;0.70;;;15.00;99.90;;;;;;4994982;28;20025;-73
2022/05/18 05:14:44;;;;;;;0.68;0.40;;;15.00;99.90;;;;;;4994119;28;20030;-74
2022/05/18 05:17:12;;;;;;;4.35;0.63;;;15.00;99.90;;;;;;4992356;28;20110;-75
2022/05/18 05:19:40;;;;;;;1.45;0.40;;;14.90;99.90;;;;;;4994534;28;20054;-76
2022/05/18 05:22:07;;;;;;;1.35;0.50;;;14.90;99.90;;;;;;4988928;28;20022;-75
2022/05/18 05:24:35;;;;;;;1.98;0.40;;;14.90;99.90;;;;;;4994884;28;20056;-71
2022/05/18 05:27:03;;;;;;;1.48;0.63;;;15.00;99.90;;;;;;4995424;28;20018;-72
2022/05/18 05:29:31;;;;;;;3.97;0.45;;;14.90;99.90;;;;;;4995125;28;20057;-72
2022/05/18 05:32:04;;;;;;;0.77;0.25;;;14.90;99.90;;;;;;4994970;28;20014;-73
2022/05/18 05:34:33;;;;;;;4.72;0.73;;;14.90;99.90;;;;;;4995132;28;20037;-74
2022/05/18 05:37:01;;;;;;;2.75;0.43;;;14.90;99.90;;;;;;4995182;28;20097;-74
2022/05/18 05:39:28;;;;;;;2.63;0.40;;;14.90;99.90;;;;;;4989477;28;20033;-74
2022/05/18 05:41:56;;;;;;;1.67;0.75;;;14.90;99.90;;;;;;4989255;28;20022;-73
2022/05/18 05:44:24;;;;;;;2.55;0.65;;;14.90;99.90;;;;;;4989319;28;20038;-73
2022/05/18 05:46:51;;;;;;;1.80;0.45;;;14.90;99.90;;;;;;4990881;28;20080;-73
2022/05/18 05:49:19;;;;;;;3.30;0.40;;;14.90;99.90;;;;;;4992770;28;20018;-73
2022/05/18 05:51:47;;;;;;;1.52;0.40;;;14.90;99.90;;;;;;4993053;28;20488;-74
2022/05/18 05:54:15;;;;;;;0.82;0.38;;;15.00;99.90;;;;;;4991862;28;20030;-72
2022/05/18 05:56:43;;;;;;;1.48;0.68;;;14.90;99.90;;;;;;4992282;28;20030;-72
2022/05/18 05:59:11;;;;;;;1.02;0.30;;;14.90;99.90;;;;;;4995260;28;20118;-73
2022/05/18 06:01:38;;;;;;;0.75;0.30;;;14.80;99.90;;;;;;4993104;28;20018;-72
2022/05/18 06:04:07;;;;;;;0.75;0.40;;;14.80;99.90;;;;;;4977923;28;20034;-73
2022/05/18 06:06:37;;;;;;;1.55;0.63;;;14.90;99.90;;;;;;4977385;28;20030;-73
2022/05/18 06:09:09;;;;;;;2.08;0.95;;;15.00;99.90;;;;;;4975725;28;20480;-73
2022/05/18 06:11:37;;;;;;;0.43;0.25;;;15.10;99.90;;;;;;4987000;28;20045;-73
2022/05/18 06:14:05;;;;;;;1.10;0.40;;;15.20;99.90;;;;;;4993776;28;20014;-74
2022/05/18 06:16:33;;;;;;;1.35;0.40;;;15.20;99.90;;;;;;4991075;28;20026;-73
2022/05/18 06:19:01;;;;;;;0.80;0.40;;;15.00;99.90;;;;;;4989160;28;20021;-73
2022/05/18 06:21:29;;;;;;;0.85;0.35;;;14.90;99.90;;;;;;4988606;28;20054;-73
2022/05/18 06:23:57;;;;;;;7.22;0.90;;;14.80;99.90;;;;;;4987256;28;20443;-74
2022/05/18 06:26:26;;;;;;;3.05;0.60;;;14.80;99.90;;;;;;4989237;28;20092;-73
2022/05/18 06:28:55;;;;;;;1.35;0.52;;;14.70;99.90;;;;;;4988888;28;20025;-73
2022/05/18 06:31:23;;;;;;;0.73;0.32;;;14.70;99.90;;;;;;4992260;28;20404;-75
2022/05/18 06:33:50;;;;;;;4.22;0.40;;;14.60;99.90;;;;;;4994167;28;21510;-75
2022/05/18 06:36:18;;;;;;;2.97;0.60;;;14.70;99.90;;;;;;4994019;28;20038;-74
2022/05/18 06:38:46;;;;;;;1.38;0.40;;;14.70;99.90;;;;;;4993482;28;20433;-73
2022/05/18 06:41:23;;;;;;;5.70;0.60;;;14.70;99.90;;;;;;4994086;28;20093;-73
2022/05/18 06:44:00;;;;;;;1.55;0.50;;;14.70;99.90;;;;;;4994095;28;20510;-73
2022/05/18 06:46:29;;;;;;;1.27;0.40;;;14.70;99.90;;;;;;4994146;28;20010;-73
2022/05/18 06:48:58;;;;;;;1.67;0.52;;;14.60;99.90;;;;;;4994374;28;20030;-73
2022/05/18 06:51:32;;;;;;;0.52;0.25;;;14.60;99.90;;;;;;4993503;28;20050;-74
2022/05/18 06:54:01;;;;;;;0.80;0.27;;;14.50;99.90;;;;;;4991898;28;20029;-75
2022/05/18 06:56:34;;;;;;;3.40;0.68;;;14.50;99.90;;;;;;4987067;28;20027;-75
2022/05/18 06:59:02;;;;;;;1.65;0.50;;;14.50;99.90;;;;;;4992987;28;20018;-73
2022/05/18 07:01:30;;;;;;;1.42;0.60;;;14.50;99.90;;;;;;4991835;28;20050;-73
2022/05/18 07:03:59;;;;;;;1.20;0.50;;;14.40;99.90;;;;;;4993505;28;20049;-72
2022/05/18 07:06:29;;;;;;;3.00;0.63;;;14.30;99.90;;;;;;4993679;28;20109;-74
2022/05/18 07:08:57;;;;;;;0.98;0.40;;;14.30;99.90;;;;;;4993275;28;20034;-73
2022/05/18 07:11:26;;;;;;;1.75;0.30;;;14.20;99.90;;;;;;4993452;28;20061;-73
2022/05/18 07:13:55;;;;;;;1.50;0.60;;;14.10;99.90;;;;;;4992247;28;20026;-73
2022/05/18 07:16:24;;;;;;;1.40;0.43;;;14.10;99.90;;;;;;4991454;28;20496;-73
2022/05/18 07:18:52;;;;;;;3.33;0.73;;;14.00;99.90;;;;;;4991275;28;20030;-73
2022/05/18 07:21:21;;;;;;;2.67;1.45;;;13.90;99.90;;;;;;4991374;28;20394;-72
2022/05/18 07:23:49;;;;;;;3.53;1.20;;;13.80;99.90;;;;;;4992288;28;20490;-72
2022/05/18 07:26:18;;;;;;;7.55;1.42;;;13.80;99.90;;;;;;4993161;28;20522;-72
2022/05/18 07:28:46;;;;;;;4.93;0.93;;;13.70;99.90;;;;;;4992427;28;20030;-73
2022/05/18 07:31:14;;;;;;;1.50;0.90;;;13.70;99.90;;;;;;4993003;28;20137;-72
2022/05/18 07:33:42;;;;;;;2.35;0.70;;;13.70;99.90;;;;;;4993372;28;20055;-74
2022/05/18 07:36:10;;;;;;;2.50;1.00;;;13.70;99.90;;;;;;4993292;28;20424;-73
2022/05/18 07:38:40;;;;;;;2.78;0.60;;;13.60;99.90;;;;;;4993079;28;20026;-74
2022/05/18 07:41:10;;;;;;;1.30;0.75;;;13.60;99.90;;;;;;4992986;28;20550;-74
2022/05/18 07:43:39;;;;;;;1.52;0.63;;;13.60;99.90;;;;;;4991797;28;20030;-73
2022/05/18 07:46:08;;;;;;;2.67;0.95;;;13.60;99.90;;;;;;4993632;28;20031;-73
2022/05/18 07:48:37;;;;;;;1.05;0.82;;;13.60;99.90;;;;;;4993748;28;20069;-72
2022/05/18 07:51:06;;;;;;;2.15;1.20;;;13.60;99.90;;;;;;4993281;28;20073;-73
2022/05/18 07:53:33;;;;;;;3.92;1.30;;;13.60;99.90;;;;;;4993811;28;20026;-72
2022/05/18 07:56:01;;;;;;;2.67;1.33;;;13.60;99.90;;;;;;4993621;28;20368;-73
2022/05/18 07:58:29;;;;;;;2.10;1.30;;;13.50;99.90;;;;;;4991657;28;20080;-73
2022/05/18 08:00:57;;;;;;;4.22;1.80;;;13.50;99.90;;;;;;4972595;28;20480;-73
2022/05/18 08:03:24;;;;;;;1.40;0.93;;;13.50;99.90;;;;;;4972123;28;20050;-73
2022/05/18 08:05:52;;;;;;;1.70;0.98;;;13.50;99.90;;;;;;4972133;28;20062;-74
2022/05/18 08:08:21;;;;;;;2.28;1.20;;;13.40;99.90;;;;;;4972093;28;20015;-73
2022/05/18 08:16:21;;;;;;;4.03;0.90;;;13.30;99.90;;;;;;4973649;28;20045;-72
2022/05/18 08:18:49;;;;;;;0.82;0.60;;;13.30;99.90;;;;;;4973017;28;20034;-73
2022/05/18 08:21:18;;;;;;;2.28;0.75;;;13.20;99.90;;;;;;4973186;28;20022;-73
2022/05/18 08:23:46;;;;;;;1.33;0.60;;;13.20;99.90;;;;;;4973251;28;20479;-74
2022/05/18 08:26:14;;;;;;;3.20;1.05;;;13.20;99.90;;;;;;4972148;28;20080;-73
2022/05/18 08:28:42;;;;;;;1.25;0.60;;;13.30;99.90;;;;;;4972745;28;20027;-72
2022/05/18 08:31:09;;;;;;;2.35;0.60;;;13.30;99.90;;;;;;4973428;28;20034;-74
2022/05/18 08:33:37;;;;;;;2.10;0.90;;;13.30;99.90;;;;;;4973225;28;20388;-72
2022/05/18 08:36:07;;;;;;;2.20;1.25;;;13.30;99.90;;;;;;4974335;28;20031;-72
2022/05/18 08:38:36;;;;;;;11.57;3.63;;;13.30;99.90;;;;;;4976476;28;20384;-75
2022/05/18 08:41:10;;;;;;;12.20;4.82;;;13.30;99.90;;;;;;4975913;28;20158;-73
2022/05/18 08:43:41;;;;;;;4.35;1.83;;;13.30;99.90;;;;;;4976559;28;20090;-74
2022/05/18 08:46:23;;;;;;;3.53;1.00;;;13.20;99.90;;;;;;4975363;28;20022;-72
2022/05/18 08:48:59;;;;;;;1.08;0.63;;;13.20;99.90;;;;;;4976057;28;20506;-72
2022/05/18 08:51:56;;;;;;;3.45;0.88;;;13.20;99.90;;;;;;4976214;28;20047;-72
2022/05/18 08:54:47;;;;;;;1.05;0.70;;;13.20;99.90;;;;;;4975636;28;20019;-74
2022/05/18 08:57:29;;;;;;;0.40;0.40;;;13.20;99.90;;;;;;4984127;28;20062;-74
2022/05/18 09:00:07;;;;;;;0.82;0.50;;;13.30;99.90;;;;;;4987673;28;20015;-73
2022/05/18 09:02:36;;;;;;;2.97;0.60;;;13.20;99.90;;;;;;4987770;28;20553;-73
2022/05/18 09:05:12;;;;;;;1.35;0.52;;;13.20;99.90;;;;;;4987985;28;20060;-73
2022/05/18 09:07:53;;;;;;;1.08;0.50;;;13.20;99.90;;;;;;4984701;28;20022;-74
2022/05/18 09:10:29;;;;;;;11.60;1.02;;;13.20;99.90;;;;;;4996378;28;20553;-72
2022/05/18 09:12:57;;;;;;;1.23;0.70;;;13.10;99.90;;;;;;5016052;28;20026;-72
2022/05/18 09:15:54;;;;;;;1.35;0.63;;;13.10;99.90;;;;;;5014487;28;20026;-72
2022/05/18 09:18:47;;;;;;;1.40;0.88;;;13.10;99.90;;;;;;4976146;28;20034;-72
2022/05/18 09:21:25;;;;;;;2.40;0.70;;;13.00;99.90;;;;;;4976110;28;20110;-72
2022/05/18 09:24:14;;;;;;;2.13;0.68;;;12.90;99.90;;;;;;4975826;28;20023;-74
2022/05/18 09:27:21;;;;;;;2.65;0.70;;;12.90;99.90;;;;;;4974789;28;20027;-74
2022/05/18 09:30:33;;;;;;;2.15;0.85;;;12.80;99.90;;;;;;4973994;28;20035;-72
2022/05/18 09:33:08;;;;;;;8.25;0.85;;;12.70;99.90;;;;;;4961657;28;20037;-72
2022/05/18 09:36:12;;;;;;;0.82;0.50;;;12.60;99.90;;;;;;4974548;28;20075;-72
2022/05/18 09:38:56;;;;;;;2.70;1.15;;;12.60;99.90;;;;;;4974204;28;20154;-72
2022/05/18 09:41:30;;;;;;;3.28;1.00;;;12.50;99.90;;;;;;4973080;28;20027;-72
2022/05/18 09:44:12;;;;;;;3.03;0.90;;;12.50;99.90;;;;;;4974365;28;20022;-72
2022/05/18 09:46:42;;;;;;;3.50;0.90;;;12.40;99.90;;;;;;4975391;28;20098;-72
2022/05/18 09:49:34;;;;;;;6.65;1.38;;;12.40;99.90;;;;;;4973393;28;20114;-72
2022/05/18 09:52:04;;;;;;;2.45;1.15;;;12.40;99.90;;;;;;4972960;28;20519;-72
2022/05/18 09:54:34;;;;;;;2.38;1.00;;;12.30;99.90;;;;;;4972988;28;20030;-73
2022/05/18 09:57:12;;;;;;;1.70;0.80;;;12.30;99.90;;;;;;4973068;28;20499;-72
2022/05/18 09:59:46;;;;;;;7.70;3.58;;;12.30;99.90;;;;;;4972806;28;20503;-71
2022/05/18 10:07:57;;;;;;;3.72;1.60;;;12.20;99.90;;;;;;4980242;28;20045;-75
2022/05/18 10:10:38;;;;;;;3.97;1.40;;;12.20;99.90;;;;;;4993896;28;20065;-71
2022/05/18 10:13:15;;;;;;;2.75;1.30;;;12.20;99.90;;;;;;4994242;28;20486;-72
2022/05/18 10:15:47;;;;;;;3.72;1.33;;;12.20;99.90;;;;;;4994345;28;20030;-73
2022/05/18 10:18:20;;;;;;;8.40;0.90;;;12.10;99.90;;;;;;4994258;28;20018;-71
2022/05/18 10:21:03;;;;;;;1.23;1.13;;;12.10;99.90;;;;;;4994310;28;20533;-71
2022/05/18 10:24:02;;;;;;;3.85;1.30;;;12.10;99.90;;;;;;4993947;28;20055;-71
2022/05/18 10:26:41;;;;;;;1.75;1.00;;;12.00;99.90;;;;;;4938319;28;20034;-71
2022/05/18 10:29:08;;;;;;;1.85;1.17;;;12.00;99.90;;;;;;4976511;28;20030;-71
2022/05/18 10:31:42;;;;;;;2.13;1.30;;;12.00;99.90;;;;;;4974479;28;20113;-72
2022/05/18 10:34:22;;;;;;;2.28;1.35;;;11.90;99.90;;;;;;4974549;28;20015;-72
2022/05/18 10:36:59;;;;;;;2.75;1.60;;;12.00;99.90;;;;;;4974165;28;20472;-72
2022/05/18 10:39:38;;;;;;;2.88;1.10;;;12.00;99.90;;;;;;4973841;28;20038;-72
2022/05/18 10:42:31;;;;;;;1.65;1.23;;;12.00;99.90;;;;;;4973919;28;20019;-72
2022/05/18 10:45:01;;;;;;;2.47;1.45;;;12.00;99.90;;;;;;4973998;28;20029;-72
2022/05/18 10:47:38;;;;;;;1.70;1.05;;;12.00;99.90;;;;;;4974579;28;20528;-72
2022/05/18 10:50:24;;;;;;;1.83;1.10;;;12.00;99.90;;;;;;4993444;28;20046;-73
2022/05/18 10:53:00;;;;;;;1.48;0.98;;;12.00;99.90;;;;;;4993608;28;20101;-73
2022/05/18 10:55:29;;;;;;;;;;;12.00;99.90;;;;;;4988935;28;20077;-72
2022/05/18 10:58:05;;;;;;;2.85;1.20;;;12.00;99.90;;;;;;4990674;28;19917;-72
2022/05/18 11:00:54;;;;;;;2.63;0.80;;;11.90;99.90;;;;;;4993418;28;20049;-72
2022/05/18 11:03:42;;;;;;;2.20;0.70;;;11.90;99.90;;;;;;4991155;28;20019;-72
2022/05/18 11:06:35;;;;;;;1.00;0.70;;;11.90;99.90;;;;;;4993697;28;20018;-71
2022/05/18 11:09:26;;;;;;;3.20;1.58;;;11.90;99.90;;;;;;4994024;28;20030;-72
2022/05/18 11:12:02;;;;;;;4.95;2.83;;;11.80;99.90;;;;;;4993811;28;20572;-72
2022/05/18 11:14:55;;;;;;;6.97;3.20;;;11.80;99.90;;;;;;4994233;28;20026;-72
2022/05/18 11:17:29;;;;;;;6.93;1.70;;;11.70;99.90;;;;;;4994136;28;20030;-72
2022/05/18 11:20:22;;;;;;;3.72;1.17;;;11.70;99.90;;;;;;4975206;28;20471;-73
2022/05/18 11:23:08;;;;;;;2.10;0.75;;;11.60;99.90;;;;;;4974916;28;20472;-72
2022/05/18 11:25:54;;;;;;;2.03;1.13;;;11.60;99.90;;;;;;4974130;28;20037;-73
2022/05/18 11:28:39;;;;;;;;;;;11.50;99.90;;;;;;4979882;28;20031;-72
2022/05/18 11:31:27;;;;;;;0.98;0.80;;;11.50;99.90;;;;;;4973740;28;19914;-72
2022/05/18 11:34:22;;;;;;;1.75;1.10;;;11.40;99.90;;;;;;4973343;28;20033;-72
2022/05/18 11:36:55;;;;;;;2.15;1.15;;;11.40;99.90;;;;;;4973878;28;20026;-72
2022/05/18 11:39:46;;;;;;;2.35;1.20;;;11.30;99.90;;;;;;4973850;28;20023;-72
2022/05/18 11:42:22;;;;;;;1.85;1.05;;;11.20;99.90;;;;;;4973892;28;20025;-74
2022/05/18 11:45:05;;;;;;;;;;;11.20;99.90;;;;;;4975427;28;20049;-71
2022/05/18 11:47:56;;;;;;;1.63;1.00;;;11.20;99.90;;;;;;4973268;28;19917;-72
2022/05/18 11:50:44;;;;;;;1.73;1.23;;;11.10;99.90;;;;;;4972805;28;20050;-71
2022/05/18 11:53:43;;;;;;;1.40;1.00;;;11.10;99.90;;;;;;4961842;28;20027;-73
2022/05/18 11:56:29;;;;;;;5.07;0.85;;;11.10;99.90;;;;;;4973279;28;20022;-72
2022/05/18 11:59:28;;;;;;;2.03;1.27;;;11.00;99.90;;;;;;4972998;28;20031;-72
2022/05/18 12:02:05;;;;;;;2.63;1.35;;;11.00;99.90;;;;;;4972581;28;20062;-72
2022/05/18 12:05:06;;;;;;;1.98;1.55;;;11.00;99.90;;;;;;4973102;28;20038;-72
2022/05/18 12:07:59;;;;;;;8.02;3.30;;;10.90;99.90;;;;;;4972865;28;20403;-71
2022/05/18 12:10:56;;;;;;;7.40;3.80;;;10.90;99.90;;;;;;4972634;28;20113;-72
2022/05/18 12:13:29;;;;;;;9.05;4.55;;;10.90;99.90;;;;;;4974791;28;20038;-72
2022/05/18 12:16:31;;;;;;;12.30;3.97;;;10.90;99.90;;;;;;4995781;28;20025;-72
2022/05/18 12:19:25;;;;;;;5.63;2.03;;;10.90;99.90;;;;;;4996110;28;20076;-71
2022/05/18 12:22:10;;;;;;;7.72;2.10;;;10.80;99.90;;;;;;4996233;28;20034;-72
2022/05/18 12:24:40;;;;;;;5.05;1.50;;;10.80;99.90;;;;;;4996147;28;20022;-72
2022/05/18 12:27:09;;;;;;;2.28;1.00;;;10.70;99.90;;;;;;4995727;28;20037;-71
2022/05/18 12:29:37;;;;;;;4.32;0.60;;;10.70;99.90;;;;;;4995732;28;20057;-71
2022/05/18 12:32:06;;;;;;;1.90;0.70;;;10.70;99.90;;;;;;4995853;28;20018;-71
2022/05/18 12:34:36;;;;;;;2.13;0.80;;;10.70;99.90;;;;;;4995602;28;20538;-72
2022/05/18 12:37:21;;;;;;;0.93;0.70;;;10.80;99.90;;;;;;4995735;28;20026;-72
2022/05/18 12:40:22;;;;;;;1.65;0.80;;;10.70;99.90;;;;;;4995778;28;20090;-72
2022/05/18 12:42:56;;;;;;;3.80;0.88;;;10.80;99.90;;;;;;4961172;28;20034;-72
2022/05/18 12:45:26;;;;;;;3.20;0.70;;;10.70;99.90;;;;;;4995586;28;20023;-74
2022/05/18 12:48:24;;;;;;;2.42;0.98;;;10.70;99.90;;;;;;4995161;28;20037;-72
2022/05/18 12:51:16;;;;;;;1.50;0.73;;;10.70;99.90;;;;;;4992292;28;20491;-72
2022/05/18 12:53:53;;;;;;;2.70;0.88;;;10.70;99.90;;;;;;4985048;28;20031;-73
2022/05/18 12:56:43;;;;;;;1.92;0.73;;;10.70;99.90;;;;;;4983884;28;20018;-73
2022/05/18 12:59:12;;;;;;;0.85;0.80;;;10.70;99.90;;;;;;4949511;28;20027;-72
2022/05/18 13:01:42;;;;;;;1.15;0.75;;;10.70;99.90;;;;;;4984741;28;20515;-71
2022/05/18 13:04:09;;;;;;;1.63;0.93;;;10.70;99.90;;;;;;4986128;28;20037;-71
2022/05/18 13:06:39;;;;;;;3.42;1.23;;;10.70;99.90;;;;;;4991234;28;20121;-72
2022/05/18 13:09:25;;;;;;;2.17;1.00;;;10.70;99.90;;;;;;4985971;28;20038;-71
2022/05/18 13:11:59;;;;;;;3.50;0.80;;;10.70;99.90;;;;;;4986936;28;20041;-71
2022/05/18 13:14:37;;;;;;;1.48;1.05;;;10.60;99.90;;;;;;4986004;28;20479;-71
2022/05/18 13:17:14;;;;;;;2.40;1.08;;;10.70;99.90;;;;;;4985724;28;20061;-71
2022/05/18 13:19:55;;;;;;;2.60;1.13;;;10.70;99.90;;;;;;4985411;28;20022;-71
2022/05/18 13:22:22;;;;;;;1.65;1.00;;;10.70;99.90;;;;;;4984937;28;20029;-71
2022/05/18 13:24:58;;;;;;;2.95;1.60;;;10.70;99.90;;;;;;4985869;28;20029;-71
2022/05/18 13:27:36;;;;;;;2.28;1.20;;;10.70;99.90;;;;;;4986020;28;20502;-71
2022/05/18 13:30:16;;;;;;;3.20;1.25;;;10.70;99.90;;;;;;4985293;28;20420;-73
2022/05/18 13:32:44;;;;;;;1.92;1.20;;;10.70;99.90;;;;;;4985536;28;20046;-73
2022/05/18 13:35:21;;;;;;;4.00;1.65;;;10.70;99.90;;;;;;4986427;28;20099;-72
2022/05/18 13:38:12;;;;;;;7.05;2.95;;;10.70;99.90;;;;;;4975025;28;20117;-71